sensor_id;sensor_type;location;lat;lon;timestamp;P1;durP1;ratioP1;P2;durP2;ratioP2
72284;SDS011;60220;53.552;10.092;2022-09-09T00:01:14;210.02;;;35.63;;
72284;SDS011;60220;53.552;10.092;2022-09-09T00:03:52;564.58;;;53.17;;
72284;SDS011;60220;53.552;10.092;2022-09-09T00:06:24;561.47;;;50.67;;
72284;SDS011;60220;53.552;10.092;2022-09-09T00:08:59;371.30;;;40.05;;
72284;SDS011;60220;53.552;10.092;2022-09-09T00:11:32;373.02;;;41.78;;
72284;SDS011;60220;53.552;10.092;2022-09-09T00:14:08;608.80;;;51.58;;
72284;SDS011;60220;53.552;10.092;2022-09-09T00:16:43;170.77;;;33.60;;
72284;SDS011;60220;53.552;10.092;2022-09-09T00:21:47;525.92;;;46.20;;
72284;SDS011;60220;53.552;10.092;2022-09-09T00:24:24;386.75;;;40.05;;
72284;SDS011;60220;53.552;10.092;2022-09-09T00:26:55;638.80;;;51.47;;
72284;SDS011;60220;53.552;10.092;2022-09-09T00:29:32;274.38;;;35.55;;
72284;SDS011;60220;53.552;10.092;2022-09-09T00:32:09;376.52;;;41.05;;
72284;SDS011;60220;53.552;10.092;2022-09-09T00:34:46;616.05;;;48.47;;
72284;SDS011;60220;53.552;10.092;2022-09-09T00:37:15;199.13;;;33.83;;
72284;SDS011;60220;53.552;10.092;2022-09-09T00:39:45;442.80;;;42.67;;
72284;SDS011;60220;53.552;10.092;2022-09-09T00:42:15;485.20;;;43.00;;
72284;SDS011;60220;53.552;10.092;2022-09-09T00:44:56;184.40;;;29.88;;
72284;SDS011;60220;53.552;10.092;2022-09-09T00:47:42;697.53;;;50.30;;
72284;SDS011;60220;53.552;10.092;2022-09-09T00:50:15;617.80;;;49.60;;
72284;SDS011;60220;53.552;10.092;2022-09-09T00:52:58;211.48;;;30.48;;
72284;SDS011;60220;53.552;10.092;2022-09-09T00:55:44;267.70;;;31.85;;
72284;SDS011;60220;53.552;10.092;2022-09-09T00:58:14;105.15;;;26.67;;
72284;SDS011;60220;53.552;10.092;2022-09-09T01:00:45;347.27;;;37.05;;
72284;SDS011;60220;53.552;10.092;2022-09-09T01:03:22;70.93;;;24.48;;
72284;SDS011;60220;53.552;10.092;2022-09-09T01:06:00;193.73;;;29.20;;
72284;SDS011;60220;53.552;10.092;2022-09-09T01:11:35;266.08;;;31.38;;
72284;SDS011;60220;53.552;10.092;2022-09-09T01:14:10;137.00;;;26.85;;
72284;SDS011;60220;53.552;10.092;2022-09-09T01:16:44;543.65;;;43.10;;
72284;SDS011;60220;53.552;10.092;2022-09-09T01:19:15;513.75;;;42.30;;
72284;SDS011;60220;53.552;10.092;2022-09-09T01:21:55;507.50;;;42.25;;
72284;SDS011;60220;53.552;10.092;2022-09-09T01:24:31;270.50;;;32.30;;
72284;SDS011;60220;53.552;10.092;2022-09-09T01:27:09;760.92;;;54.17;;
72284;SDS011;60220;53.552;10.092;2022-09-09T01:29:36;244.68;;;32.00;;
72284;SDS011;60220;53.552;10.092;2022-09-09T01:35:05;198.30;;;28.05;;
72284;SDS011;60220;53.552;10.092;2022-09-09T01:37:36;618.60;;;47.80;;
72284;SDS011;60220;53.552;10.092;2022-09-09T01:40:03;598.65;;;45.53;;
72284;SDS011;60220;53.552;10.092;2022-09-09T01:42:31;221.13;;;29.52;;
72284;SDS011;60220;53.552;10.092;2022-09-09T01:44:58;114.70;;;25.98;;
72284;SDS011;60220;53.552;10.092;2022-09-09T01:47:24;560.15;;;40.60;;
72284;SDS011;60220;53.552;10.092;2022-09-09T01:49:51;292.17;;;33.15;;
72284;SDS011;60220;53.552;10.092;2022-09-09T01:52:18;176.10;;;26.45;;
72284;SDS011;60220;53.552;10.092;2022-09-09T01:54:44;367.42;;;33.78;;
72284;SDS011;60220;53.552;10.092;2022-09-09T01:57:12;418.30;;;36.50;;
72284;SDS011;60220;53.552;10.092;2022-09-09T01:59:53;156.20;;;26.60;;
72284;SDS011;60220;53.552;10.092;2022-09-09T02:02:30;419.55;;;35.80;;
72284;SDS011;60220;53.552;10.092;2022-09-09T02:05:04;681.25;;;49.90;;
72284;SDS011;60220;53.552;10.092;2022-09-09T02:07:41;429.20;;;37.92;;
72284;SDS011;60220;53.552;10.092;2022-09-09T02:10:10;537.95;;;41.00;;
72284;SDS011;60220;53.552;10.092;2022-09-09T02:12:40;378.83;;;34.13;;
72284;SDS011;60220;53.552;10.092;2022-09-09T02:15:14;383.48;;;35.53;;
72284;SDS011;60220;53.552;10.092;2022-09-09T02:17:46;546.70;;;41.50;;
72284;SDS011;60220;53.552;10.092;2022-09-09T02:20:16;419.55;;;37.13;;
72284;SDS011;60220;53.552;10.092;2022-09-09T02:22:45;659.55;;;48.90;;
72284;SDS011;60220;53.552;10.092;2022-09-09T02:25:17;513.83;;;39.88;;
72284;SDS011;60220;53.552;10.092;2022-09-09T02:27:47;487.33;;;39.83;;
72284;SDS011;60220;53.552;10.092;2022-09-09T02:30:17;350.33;;;36.90;;
72284;SDS011;60220;53.552;10.092;2022-09-09T02:32:44;535.67;;;43.10;;
72284;SDS011;60220;53.552;10.092;2022-09-09T02:35:15;320.48;;;32.83;;
72284;SDS011;60220;53.552;10.092;2022-09-09T02:37:46;622.67;;;47.22;;
72284;SDS011;60220;53.552;10.092;2022-09-09T02:40:13;672.45;;;45.55;;
72284;SDS011;60220;53.552;10.092;2022-09-09T02:42:41;308.52;;;30.75;;
72284;SDS011;60220;53.552;10.092;2022-09-09T02:45:12;601.30;;;41.25;;
72284;SDS011;60220;53.552;10.092;2022-09-09T02:47:43;228.77;;;25.17;;
72284;SDS011;60220;53.552;10.092;2022-09-09T02:50:15;110.45;;;22.27;;
72284;SDS011;60220;53.552;10.092;2022-09-09T02:52:47;163.00;;;25.52;;
72284;SDS011;60220;53.552;10.092;2022-09-09T02:55:23;396.52;;;33.17;;
72284;SDS011;60220;53.552;10.092;2022-09-09T02:57:57;618.13;;;43.55;;
72284;SDS011;60220;53.552;10.092;2022-09-09T03:00:26;502.08;;;36.28;;
72284;SDS011;60220;53.552;10.092;2022-09-09T03:02:55;253.63;;;28.75;;
72284;SDS011;60220;53.552;10.092;2022-09-09T03:05:22;518.30;;;40.33;;
72284;SDS011;60220;53.552;10.092;2022-09-09T03:07:49;62.30;;;21.58;;
72284;SDS011;60220;53.552;10.092;2022-09-09T03:10:18;103.50;;;23.77;;
72284;SDS011;60220;53.552;10.092;2022-09-09T03:12:44;102.82;;;23.35;;
72284;SDS011;60220;53.552;10.092;2022-09-09T03:15:11;366.85;;;33.00;;
72284;SDS011;60220;53.552;10.092;2022-09-09T03:17:38;251.35;;;27.70;;
72284;SDS011;60220;53.552;10.092;2022-09-09T03:20:06;72.70;;;21.30;;
72284;SDS011;60220;53.552;10.092;2022-09-09T03:22:33;92.78;;;24.02;;
72284;SDS011;60220;53.552;10.092;2022-09-09T03:25:03;506.58;;;40.75;;
72284;SDS011;60220;53.552;10.092;2022-09-09T03:27:31;436.05;;;36.97;;
72284;SDS011;60220;53.552;10.092;2022-09-09T03:29:57;337.15;;;34.15;;
72284;SDS011;60220;53.552;10.092;2022-09-09T03:32:24;234.10;;;28.50;;
72284;SDS011;60220;53.552;10.092;2022-09-09T03:34:53;596.13;;;45.45;;
72284;SDS011;60220;53.552;10.092;2022-09-09T03:37:21;330.20;;;34.03;;
72284;SDS011;60220;53.552;10.092;2022-09-09T03:39:47;391.50;;;36.40;;
72284;SDS011;60220;53.552;10.092;2022-09-09T03:42:14;498.65;;;43.03;;
72284;SDS011;60220;53.552;10.092;2022-09-09T03:44:43;500.42;;;42.53;;
72284;SDS011;60220;53.552;10.092;2022-09-09T03:47:17;361.00;;;37.10;;
72284;SDS011;60220;53.552;10.092;2022-09-09T03:49:44;631.13;;;47.40;;
72284;SDS011;60220;53.552;10.092;2022-09-09T03:52:11;83.53;;;25.65;;
72284;SDS011;60220;53.552;10.092;2022-09-09T03:54:40;498.63;;;38.65;;
72284;SDS011;60220;53.552;10.092;2022-09-09T03:57:10;208.43;;;28.92;;
72284;SDS011;60220;53.552;10.092;2022-09-09T03:59:37;525.25;;;42.78;;
72284;SDS011;60220;53.552;10.092;2022-09-09T04:02:03;527.03;;;40.97;;
72284;SDS011;60220;53.552;10.092;2022-09-09T04:04:31;731.22;;;50.65;;
72284;SDS011;60220;53.552;10.092;2022-09-09T04:06:58;506.08;;;40.85;;
72284;SDS011;60220;53.552;10.092;2022-09-09T04:09:25;449.05;;;38.97;;
72284;SDS011;60220;53.552;10.092;2022-09-09T04:11:52;419.45;;;37.05;;
72284;SDS011;60220;53.552;10.092;2022-09-09T04:14:21;327.55;;;33.45;;
72284;SDS011;60220;53.552;10.092;2022-09-09T04:16:47;139.43;;;26.92;;
72284;SDS011;60220;53.552;10.092;2022-09-09T04:19:15;514.40;;;41.03;;
72284;SDS011;60220;53.552;10.092;2022-09-09T04:21:41;464.73;;;40.42;;
72284;SDS011;60220;53.552;10.092;2022-09-09T04:24:09;470.38;;;38.45;;
72284;SDS011;60220;53.552;10.092;2022-09-09T04:26:36;254.32;;;30.45;;
72284;SDS011;60220;53.552;10.092;2022-09-09T04:29:04;363.98;;;33.47;;
72284;SDS011;60220;53.552;10.092;2022-09-09T04:31:37;490.25;;;41.97;;
72284;SDS011;60220;53.552;10.092;2022-09-09T04:34:07;354.13;;;33.80;;
72284;SDS011;60220;53.552;10.092;2022-09-09T04:36:35;528.65;;;41.67;;
72284;SDS011;60220;53.552;10.092;2022-09-09T04:39:02;294.38;;;31.38;;
72284;SDS011;60220;53.552;10.092;2022-09-09T04:41:31;386.13;;;36.97;;
72284;SDS011;60220;53.552;10.092;2022-09-09T04:43:58;188.68;;;29.33;;
72284;SDS011;60220;53.552;10.092;2022-09-09T04:46:26;204.75;;;28.88;;
72284;SDS011;60220;53.552;10.092;2022-09-09T04:48:53;124.65;;;27.08;;
72284;SDS011;60220;53.552;10.092;2022-09-09T04:51:22;235.63;;;30.15;;
72284;SDS011;60220;53.552;10.092;2022-09-09T04:53:49;119.38;;;26.13;;
72284;SDS011;60220;53.552;10.092;2022-09-09T04:56:16;117.70;;;25.80;;
72284;SDS011;60220;53.552;10.092;2022-09-09T04:58:46;81.57;;;25.00;;
72284;SDS011;60220;53.552;10.092;2022-09-09T05:01:15;201.90;;;28.10;;
72284;SDS011;60220;53.552;10.092;2022-09-09T05:03:48;89.80;;;25.05;;
72284;SDS011;60220;53.552;10.092;2022-09-09T05:06:15;91.50;;;50.45;;
72284;SDS011;60220;53.552;10.092;2022-09-09T05:08:43;72.50;;;25.08;;
72284;SDS011;60220;53.552;10.092;2022-09-09T05:11:14;97.22;;;25.27;;
72284;SDS011;60220;53.552;10.092;2022-09-09T05:13:42;69.15;;;25.33;;
72284;SDS011;60220;53.552;10.092;2022-09-09T05:16:11;67.85;;;22.05;;
72284;SDS011;60220;53.552;10.092;2022-09-09T05:18:38;61.78;;;23.33;;
72284;SDS011;60220;53.552;10.092;2022-09-09T05:21:06;71.60;;;23.40;;
72284;SDS011;60220;53.552;10.092;2022-09-09T05:23:34;66.78;;;21.92;;
72284;SDS011;60220;53.552;10.092;2022-09-09T05:26:02;65.13;;;22.80;;
72284;SDS011;60220;53.552;10.092;2022-09-09T05:28:29;59.70;;;21.00;;
72284;SDS011;60220;53.552;10.092;2022-09-09T05:30:57;92.47;;;22.80;;
72284;SDS011;60220;53.552;10.092;2022-09-09T05:33:25;87.55;;;23.13;;
72284;SDS011;60220;53.552;10.092;2022-09-09T05:35:56;62.00;;;21.55;;
72284;SDS011;60220;53.552;10.092;2022-09-09T05:38:25;53.63;;;21.38;;
72284;SDS011;60220;53.552;10.092;2022-09-09T05:40:52;52.60;;;20.58;;
72284;SDS011;60220;53.552;10.092;2022-09-09T05:43:19;124.47;;;23.17;;
72284;SDS011;60220;53.552;10.092;2022-09-09T05:45:46;55.75;;;20.42;;
72284;SDS011;60220;53.552;10.092;2022-09-09T05:48:13;55.92;;;19.10;;
72284;SDS011;60220;53.552;10.092;2022-09-09T05:50:41;59.35;;;19.83;;
72284;SDS011;60220;53.552;10.092;2022-09-09T05:53:07;53.95;;;19.95;;
72284;SDS011;60220;53.552;10.092;2022-09-09T05:55:38;48.33;;;18.50;;
72284;SDS011;60220;53.552;10.092;2022-09-09T05:58:04;50.92;;;18.52;;
72284;SDS011;60220;53.552;10.092;2022-09-09T06:00:31;49.13;;;18.48;;
72284;SDS011;60220;53.552;10.092;2022-09-09T06:02:57;44.92;;;19.15;;
72284;SDS011;60220;53.552;10.092;2022-09-09T06:05:24;47.20;;;18.73;;
72284;SDS011;60220;53.552;10.092;2022-09-09T06:07:54;45.00;;;17.05;;
72284;SDS011;60220;53.552;10.092;2022-09-09T06:10:21;49.83;;;18.73;;
72284;SDS011;60220;53.552;10.092;2022-09-09T06:12:51;42.30;;;17.90;;
72284;SDS011;60220;53.552;10.092;2022-09-09T06:15:18;42.25;;;18.02;;
72284;SDS011;60220;53.552;10.092;2022-09-09T06:17:45;47.75;;;18.80;;
72284;SDS011;60220;53.552;10.092;2022-09-09T06:20:12;48.55;;;17.48;;
72284;SDS011;60220;53.552;10.092;2022-09-09T06:22:42;41.20;;;18.67;;
72284;SDS011;60220;53.552;10.092;2022-09-09T06:25:11;41.97;;;17.67;;
72284;SDS011;60220;53.552;10.092;2022-09-09T06:27:38;36.70;;;16.35;;
72284;SDS011;60220;53.552;10.092;2022-09-09T06:30:09;42.13;;;17.23;;
72284;SDS011;60220;53.552;10.092;2022-09-09T06:32:37;38.58;;;16.75;;
72284;SDS011;60220;53.552;10.092;2022-09-09T06:35:06;35.28;;;16.00;;
72284;SDS011;60220;53.552;10.092;2022-09-09T06:37:34;40.53;;;15.85;;
72284;SDS011;60220;53.552;10.092;2022-09-09T06:40:02;44.10;;;16.85;;
72284;SDS011;60220;53.552;10.092;2022-09-09T06:42:29;31.85;;;14.50;;
72284;SDS011;60220;53.552;10.092;2022-09-09T06:44:59;37.30;;;15.52;;
72284;SDS011;60220;53.552;10.092;2022-09-09T06:47:29;29.35;;;13.55;;
72284;SDS011;60220;53.552;10.092;2022-09-09T06:49:56;34.75;;;14.70;;
72284;SDS011;60220;53.552;10.092;2022-09-09T06:52:23;39.85;;;15.38;;
72284;SDS011;60220;53.552;10.092;2022-09-09T06:54:50;34.13;;;14.45;;
72284;SDS011;60220;53.552;10.092;2022-09-09T06:57:18;31.20;;;14.07;;
72284;SDS011;60220;53.552;10.092;2022-09-09T06:59:44;29.92;;;12.63;;
72284;SDS011;60220;53.552;10.092;2022-09-09T07:02:11;28.85;;;12.55;;
72284;SDS011;60220;53.552;10.092;2022-09-09T07:04:39;27.60;;;13.77;;
72284;SDS011;60220;53.552;10.092;2022-09-09T07:07:08;24.02;;;12.43;;
72284;SDS011;60220;53.552;10.092;2022-09-09T07:09:37;35.17;;;13.48;;
72284;SDS011;60220;53.552;10.092;2022-09-09T07:12:04;29.25;;;12.10;;
72284;SDS011;60220;53.552;10.092;2022-09-09T07:14:31;26.83;;;11.85;;
72284;SDS011;60220;53.552;10.092;2022-09-09T07:16:57;24.80;;;10.38;;
72284;SDS011;60220;53.552;10.092;2022-09-09T07:19:25;20.73;;;11.40;;
72284;SDS011;60220;53.552;10.092;2022-09-09T07:21:55;20.33;;;11.10;;
72284;SDS011;60220;53.552;10.092;2022-09-09T07:24:22;19.20;;;10.27;;
72284;SDS011;60220;53.552;10.092;2022-09-09T07:26:48;21.40;;;10.48;;
72284;SDS011;60220;53.552;10.092;2022-09-09T07:29:17;20.20;;;9.50;;
72284;SDS011;60220;53.552;10.092;2022-09-09T07:31:43;23.17;;;10.13;;
72284;SDS011;60220;53.552;10.092;2022-09-09T07:34:10;22.08;;;8.88;;
72284;SDS011;60220;53.552;10.092;2022-09-09T07:36:37;19.02;;;10.18;;
72284;SDS011;60220;53.552;10.092;2022-09-09T07:39:09;21.15;;;10.05;;
72284;SDS011;60220;53.552;10.092;2022-09-09T07:41:42;15.68;;;8.32;;
72284;SDS011;60220;53.552;10.092;2022-09-09T07:44:10;18.55;;;8.77;;
72284;SDS011;60220;53.552;10.092;2022-09-09T07:46:38;16.63;;;8.38;;
72284;SDS011;60220;53.552;10.092;2022-09-09T07:49:06;20.27;;;8.82;;
72284;SDS011;60220;53.552;10.092;2022-09-09T07:51:34;11.65;;;7.65;;
72284;SDS011;60220;53.552;10.092;2022-09-09T07:54:03;12.50;;;8.18;;
72284;SDS011;60220;53.552;10.092;2022-09-09T07:56:32;11.35;;;6.53;;
72284;SDS011;60220;53.552;10.092;2022-09-09T07:58:59;12.63;;;6.78;;
72284;SDS011;60220;53.552;10.092;2022-09-09T08:01:27;10.20;;;6.60;;
72284;SDS011;60220;53.552;10.092;2022-09-09T08:03:55;9.90;;;6.80;;
72284;SDS011;60220;53.552;10.092;2022-09-09T08:06:26;10.02;;;6.78;;
72284;SDS011;60220;53.552;10.092;2022-09-09T08:08:53;13.30;;;7.80;;
72284;SDS011;60220;53.552;10.092;2022-09-09T08:11:21;13.80;;;7.22;;
72284;SDS011;60220;53.552;10.092;2022-09-09T08:13:50;10.02;;;6.07;;
72284;SDS011;60220;53.552;10.092;2022-09-09T08:16:19;10.18;;;5.78;;
72284;SDS011;60220;53.552;10.092;2022-09-09T08:18:47;11.07;;;5.93;;
72284;SDS011;60220;53.552;10.092;2022-09-09T08:21:17;10.10;;;6.20;;
72284;SDS011;60220;53.552;10.092;2022-09-09T08:23:46;8.40;;;4.82;;
72284;SDS011;60220;53.552;10.092;2022-09-09T08:26:14;9.15;;;4.63;;
72284;SDS011;60220;53.552;10.092;2022-09-09T08:28:42;12.60;;;5.97;;
72284;SDS011;60220;53.552;10.092;2022-09-09T08:31:11;7.15;;;4.85;;
72284;SDS011;60220;53.552;10.092;2022-09-09T08:33:40;9.77;;;4.13;;
72284;SDS011;60220;53.552;10.092;2022-09-09T08:36:08;7.32;;;3.78;;
72284;SDS011;60220;53.552;10.092;2022-09-09T08:38:36;4.75;;;3.60;;
72284;SDS011;60220;53.552;10.092;2022-09-09T08:41:16;5.50;;;3.75;;
72284;SDS011;60220;53.552;10.092;2022-09-09T08:43:58;10.93;;;4.05;;
72284;SDS011;60220;53.552;10.092;2022-09-09T08:46:32;7.57;;;3.85;;
72284;SDS011;60220;53.552;10.092;2022-09-09T08:49:06;7.15;;;3.30;;
72284;SDS011;60220;53.552;10.092;2022-09-09T08:51:47;17.17;;;7.65;;
72284;SDS011;60220;53.552;10.092;2022-09-09T08:54:15;13.15;;;7.93;;
72284;SDS011;60220;53.552;10.092;2022-09-09T08:56:42;15.20;;;11.07;;
72284;SDS011;60220;53.552;10.092;2022-09-09T08:59:12;5.90;;;3.75;;
72284;SDS011;60220;53.552;10.092;2022-09-09T09:01:47;7.28;;;3.13;;
72284;SDS011;60220;53.552;10.092;2022-09-09T09:04:29;6.63;;;3.42;;
72284;SDS011;60220;53.552;10.092;2022-09-09T09:07:15;6.63;;;3.67;;
72284;SDS011;60220;53.552;10.092;2022-09-09T09:09:54;7.35;;;3.88;;
72284;SDS011;60220;53.552;10.092;2022-09-09T09:12:29;5.15;;;3.70;;
72284;SDS011;60220;53.552;10.092;2022-09-09T09:15:08;7.10;;;4.22;;
72284;SDS011;60220;53.552;10.092;2022-09-09T09:17:43;3.35;;;2.90;;
72284;SDS011;60220;53.552;10.092;2022-09-09T09:20:13;7.57;;;3.35;;
72284;SDS011;60220;53.552;10.092;2022-09-09T09:22:45;8.55;;;3.53;;
72284;SDS011;60220;53.552;10.092;2022-09-09T09:25:17;6.20;;;3.40;;
72284;SDS011;60220;53.552;10.092;2022-09-09T09:27:49;6.50;;;3.33;;
72284;SDS011;60220;53.552;10.092;2022-09-09T09:30:26;5.43;;;3.33;;
72284;SDS011;60220;53.552;10.092;2022-09-09T09:32:59;5.68;;;3.22;;
72284;SDS011;60220;53.552;10.092;2022-09-09T09:35:29;15.90;;;8.48;;
72284;SDS011;60220;53.552;10.092;2022-09-09T09:37:56;5.13;;;3.10;;
72284;SDS011;60220;53.552;10.092;2022-09-09T09:40:22;5.75;;;2.35;;
72284;SDS011;60220;53.552;10.092;2022-09-09T09:42:52;8.18;;;2.50;;
72284;SDS011;60220;53.552;10.092;2022-09-09T09:45:32;14.00;;;6.50;;
72284;SDS011;60220;53.552;10.092;2022-09-09T09:48:05;7.45;;;3.33;;
72284;SDS011;60220;53.552;10.092;2022-09-09T09:50:34;4.68;;;2.45;;
72284;SDS011;60220;53.552;10.092;2022-09-09T09:53:17;8.68;;;2.60;;
72284;SDS011;60220;53.552;10.092;2022-09-09T09:55:49;3.05;;;2.20;;
72284;SDS011;60220;53.552;10.092;2022-09-09T09:58:20;4.70;;;2.20;;
72284;SDS011;60220;53.552;10.092;2022-09-09T10:00:47;6.22;;;2.92;;
72284;SDS011;60220;53.552;10.092;2022-09-09T10:03:21;5.28;;;2.38;;
72284;SDS011;60220;53.552;10.092;2022-09-09T10:05:49;3.30;;;2.00;;
72284;SDS011;60220;53.552;10.092;2022-09-09T10:08:19;5.47;;;2.33;;
72284;SDS011;60220;53.552;10.092;2022-09-09T10:10:49;5.25;;;2.50;;
72284;SDS011;60220;53.552;10.092;2022-09-09T10:13:40;4.82;;;2.72;;
72284;SDS011;60220;53.552;10.092;2022-09-09T10:16:19;7.07;;;3.40;;
72284;SDS011;60220;53.552;10.092;2022-09-09T10:18:59;4.05;;;1.75;;
72284;SDS011;60220;53.552;10.092;2022-09-09T10:21:42;5.55;;;1.88;;
72284;SDS011;60220;53.552;10.092;2022-09-09T10:24:36;4.97;;;2.00;;
72284;SDS011;60220;53.552;10.092;2022-09-09T10:27:17;3.70;;;1.90;;
72284;SDS011;60220;53.552;10.092;2022-09-09T10:30:01;4.25;;;1.50;;
72284;SDS011;60220;53.552;10.092;2022-09-09T10:32:40;5.50;;;1.83;;
72284;SDS011;60220;53.552;10.092;2022-09-09T10:35:18;10.90;;;5.95;;
72284;SDS011;60220;53.552;10.092;2022-09-09T10:37:54;10.30;;;7.07;;
72284;SDS011;60220;53.552;10.092;2022-09-09T10:40:37;3.42;;;1.33;;
72284;SDS011;60220;53.552;10.092;2022-09-09T10:45:46;4.65;;;2.05;;
72284;SDS011;60220;53.552;10.092;2022-09-09T10:51:17;5.38;;;1.30;;
72284;SDS011;60220;53.552;10.092;2022-09-09T10:53:57;6.38;;;1.83;;
72284;SDS011;60220;53.552;10.092;2022-09-09T10:56:35;4.40;;;1.80;;
72284;SDS011;60220;53.552;10.092;2022-09-09T10:59:06;4.82;;;1.42;;
72284;SDS011;60220;53.552;10.092;2022-09-09T11:01:39;3.83;;;1.45;;
72284;SDS011;60220;53.552;10.092;2022-09-09T11:04:10;4.07;;;1.40;;
72284;SDS011;60220;53.552;10.092;2022-09-09T11:06:44;3.10;;;1.42;;
72284;SDS011;60220;53.552;10.092;2022-09-09T11:09:18;5.00;;;1.92;;
72284;SDS011;60220;53.552;10.092;2022-09-09T11:11:49;6.65;;;3.50;;
72284;SDS011;60220;53.552;10.092;2022-09-09T11:14:22;2.42;;;1.40;;
72284;SDS011;60220;53.552;10.092;2022-09-09T11:16:56;3.40;;;2.00;;
72284;SDS011;60220;53.552;10.092;2022-09-09T11:19:30;4.57;;;1.63;;
72284;SDS011;60220;53.552;10.092;2022-09-09T11:22:02;2.22;;;1.30;;
72284;SDS011;60220;53.552;10.092;2022-09-09T11:24:35;5.72;;;1.70;;
72284;SDS011;60220;53.552;10.092;2022-09-09T11:27:07;7.00;;;2.58;;
72284;SDS011;60220;53.552;10.092;2022-09-09T11:30:02;1.33;;;1.23;;
72284;SDS011;60220;53.552;10.092;2022-09-09T11:33:00;36.47;;;21.42;;
72284;SDS011;60220;53.552;10.092;2022-09-09T11:35:47;4.90;;;1.70;;
72284;SDS011;60220;53.552;10.092;2022-09-09T11:40:57;6.22;;;1.25;;
72284;SDS011;60220;53.552;10.092;2022-09-09T11:43:30;3.50;;;1.80;;
72284;SDS011;60220;53.552;10.092;2022-09-09T11:46:00;10.05;;;4.05;;
72284;SDS011;60220;53.552;10.092;2022-09-09T11:48:34;4.50;;;2.00;;
72284;SDS011;60220;53.552;10.092;2022-09-09T11:51:04;3.17;;;1.85;;
72284;SDS011;60220;53.552;10.092;2022-09-09T11:53:34;9.55;;;5.03;;
72284;SDS011;60220;53.552;10.092;2022-09-09T11:56:22;3.00;;;1.80;;
72284;SDS011;60220;53.552;10.092;2022-09-09T11:58:55;3.03;;;1.70;;
72284;SDS011;60220;53.552;10.092;2022-09-09T12:01:27;6.82;;;2.08;;
72284;SDS011;60220;53.552;10.092;2022-09-09T12:04:05;6.28;;;3.05;;
72284;SDS011;60220;53.552;10.092;2022-09-09T12:06:56;4.82;;;2.15;;
72284;SDS011;60220;53.552;10.092;2022-09-09T12:09:29;2.92;;;1.88;;
72284;SDS011;60220;53.552;10.092;2022-09-09T12:12:05;12.02;;;7.88;;
72284;SDS011;60220;53.552;10.092;2022-09-09T12:14:55;3.00;;;1.98;;
72284;SDS011;60220;53.552;10.092;2022-09-09T12:17:41;5.43;;;1.85;;
72284;SDS011;60220;53.552;10.092;2022-09-09T12:20:11;6.25;;;2.67;;
72284;SDS011;60220;53.552;10.092;2022-09-09T12:22:46;6.35;;;2.88;;
72284;SDS011;60220;53.552;10.092;2022-09-09T12:25:29;5.65;;;1.73;;
72284;SDS011;60220;53.552;10.092;2022-09-09T12:28:03;2.95;;;1.83;;
72284;SDS011;60220;53.552;10.092;2022-09-09T12:30:37;5.40;;;2.50;;
72284;SDS011;60220;53.552;10.092;2022-09-09T12:33:15;3.33;;;1.67;;
72284;SDS011;60220;53.552;10.092;2022-09-09T12:35:44;6.25;;;3.47;;
72284;SDS011;60220;53.552;10.092;2022-09-09T12:38:15;2.30;;;1.75;;
72284;SDS011;60220;53.552;10.092;2022-09-09T12:40:55;5.15;;;1.80;;
72284;SDS011;60220;53.552;10.092;2022-09-09T12:43:23;5.47;;;2.30;;
72284;SDS011;60220;53.552;10.092;2022-09-09T12:45:50;5.88;;;2.25;;
72284;SDS011;60220;53.552;10.092;2022-09-09T12:48:24;7.68;;;2.90;;
72284;SDS011;60220;53.552;10.092;2022-09-09T12:50:56;3.85;;;2.10;;
72284;SDS011;60220;53.552;10.092;2022-09-09T12:53:26;6.43;;;2.13;;
72284;SDS011;60220;53.552;10.092;2022-09-09T12:55:58;2.05;;;1.70;;
72284;SDS011;60220;53.552;10.092;2022-09-09T12:58:27;5.38;;;2.10;;
72284;SDS011;60220;53.552;10.092;2022-09-09T13:00:59;6.53;;;2.42;;
72284;SDS011;60220;53.552;10.092;2022-09-09T13:03:29;2.60;;;1.77;;
72284;SDS011;60220;53.552;10.092;2022-09-09T13:05:57;3.03;;;2.20;;
72284;SDS011;60220;53.552;10.092;2022-09-09T13:08:35;3.80;;;2.30;;
72284;SDS011;60220;53.552;10.092;2022-09-09T13:11:04;4.45;;;2.22;;
72284;SDS011;60220;53.552;10.092;2022-09-09T13:13:36;7.65;;;1.92;;
72284;SDS011;60220;53.552;10.092;2022-09-09T13:16:06;6.40;;;2.20;;
72284;SDS011;60220;53.552;10.092;2022-09-09T13:18:51;4.13;;;2.03;;
72284;SDS011;60220;53.552;10.092;2022-09-09T13:21:30;5.20;;;2.38;;
72284;SDS011;60220;53.552;10.092;2022-09-09T13:23:57;5.63;;;1.92;;
72284;SDS011;60220;53.552;10.092;2022-09-09T13:26:29;3.47;;;2.10;;
72284;SDS011;60220;53.552;10.092;2022-09-09T13:29:07;4.63;;;2.00;;
72284;SDS011;60220;53.552;10.092;2022-09-09T13:31:42;8.80;;;2.88;;
72284;SDS011;60220;53.552;10.092;2022-09-09T13:34:11;4.15;;;2.30;;
72284;SDS011;60220;53.552;10.092;2022-09-09T13:36:39;5.97;;;2.47;;
72284;SDS011;60220;53.552;10.092;2022-09-09T13:39:13;7.97;;;3.17;;
72284;SDS011;60220;53.552;10.092;2022-09-09T13:41:46;7.53;;;3.30;;
72284;SDS011;60220;53.552;10.092;2022-09-09T13:44:17;10.98;;;4.50;;
72284;SDS011;60220;53.552;10.092;2022-09-09T13:46:58;7.30;;;3.80;;
72284;SDS011;60220;53.552;10.092;2022-09-09T13:49:27;7.55;;;3.85;;
72284;SDS011;60220;53.552;10.092;2022-09-09T13:52:03;5.32;;;3.63;;
72284;SDS011;60220;53.552;10.092;2022-09-09T13:54:31;11.65;;;4.88;;
72284;SDS011;60220;53.552;10.092;2022-09-09T13:57:01;6.65;;;3.92;;
72284;SDS011;60220;53.552;10.092;2022-09-09T13:59:31;8.20;;;4.78;;
72284;SDS011;60220;53.552;10.092;2022-09-09T14:01:58;9.93;;;5.00;;
72284;SDS011;60220;53.552;10.092;2022-09-09T14:04:26;9.48;;;4.93;;
72284;SDS011;60220;53.552;10.092;2022-09-09T14:06:53;11.18;;;5.07;;
72284;SDS011;60220;53.552;10.092;2022-09-09T14:09:23;10.00;;;5.47;;
72284;SDS011;60220;53.552;10.092;2022-09-09T14:11:49;6.03;;;4.57;;
72284;SDS011;60220;53.552;10.092;2022-09-09T14:14:17;8.15;;;4.65;;
72284;SDS011;60220;53.552;10.092;2022-09-09T14:16:46;7.85;;;5.32;;
72284;SDS011;60220;53.552;10.092;2022-09-09T14:19:13;14.13;;;6.03;;
72284;SDS011;60220;53.552;10.092;2022-09-09T14:21:39;10.43;;;5.53;;
72284;SDS011;60220;53.552;10.092;2022-09-09T14:24:06;8.00;;;5.43;;
72284;SDS011;60220;53.552;10.092;2022-09-09T14:26:33;11.95;;;5.95;;
72284;SDS011;60220;53.552;10.092;2022-09-09T14:29:01;13.57;;;6.78;;
72284;SDS011;60220;53.552;10.092;2022-09-09T14:31:29;13.45;;;7.88;;
72284;SDS011;60220;53.552;10.092;2022-09-09T14:33:58;14.85;;;6.25;;
72284;SDS011;60220;53.552;10.092;2022-09-09T14:36:27;9.77;;;7.25;;
72284;SDS011;60220;53.552;10.092;2022-09-09T14:38:55;11.23;;;5.80;;
72284;SDS011;60220;53.552;10.092;2022-09-09T14:41:22;13.55;;;6.00;;
72284;SDS011;60220;53.552;10.092;2022-09-09T14:43:50;11.15;;;5.70;;
72284;SDS011;60220;53.552;10.092;2022-09-09T14:46:19;12.60;;;5.78;;
72284;SDS011;60220;53.552;10.092;2022-09-09T14:48:50;9.93;;;4.60;;
72284;SDS011;60220;53.552;10.092;2022-09-09T14:51:17;10.27;;;4.45;;
72284;SDS011;60220;53.552;10.092;2022-09-09T14:53:46;8.50;;;4.55;;
72284;SDS011;60220;53.552;10.092;2022-09-09T14:56:14;6.93;;;4.70;;